Time;durP1;ratioP1;P1;durP2;ratioP2;P2;SDS_P1;SDS_P2;PMS_P1;PMS_P2;Temp;Humidity;BMP_temperature;BMP_pressure;BME280_temperature;BME280_humidity;BME280_pressure;Samples;Min_cycle;Max_cycle;Signal;HPM_P1;HPM_P2
2022/04/02 00:00:35;;;;;;;15.15;4.53;;;;;;;;;;1893964;76;21026;-55
2022/04/02 00:03:05;;;;;;;17.20;4.25;;;;;;;;;;1893951;76;21054;-55
2022/04/02 00:05:34;;;;;;;11.18;4.25;;;;;;;;;;1893926;75;21031;-55
2022/04/02 00:08:02;;;;;;;11.25;4.10;;;;;;;;;;1894035;76;21030;-55
2022/04/02 00:10:32;;;;;;;21.45;4.75;;;;;;;;;;1894006;76;21030;-55
2022/04/02 00:13:00;;;;;;;12.80;5.65;;;;;;;;;;1894071;76;21022;-55
2022/04/02 00:15:29;;;;;;;14.18;3.95;;;;;;;;;;1893899;76;21038;-55
2022/04/02 00:17:58;;;;;;;18.27;4.97;;;;;;;;;;1894073;74;21124;-55
2022/04/02 00:20:26;;;;;;;10.08;4.00;;;;;;;;;;1894023;75;21026;-55
2022/04/02 00:25:41;;;;;;;15.78;4.55;;;;;;;;;;1893998;76;21007;-55
2022/04/02 00:28:10;;;;;;;15.35;4.42;;;;;;;;;;1892460;76;21026;-55
2022/04/02 00:30:40;;;;;;;17.15;5.90;;;;;;;;;;1872588;77;21027;-55
2022/04/02 00:33:09;;;;;;;15.83;4.03;;;;;;;;;;1872518;77;21105;-55
2022/04/02 00:35:38;;;;;;;14.78;4.47;;;;;;;;;;1872493;77;21071;-55
2022/04/02 00:38:07;;;;;;;16.75;4.65;;;;;;;;;;1872703;77;21101;-55
2022/04/02 00:40:37;;;;;;;17.30;5.03;;;;;;;;;;1872525;75;21109;-55
2022/04/02 00:43:06;;;;;;;14.75;4.70;;;;;;;;;;1872557;77;21542;-55
2022/04/02 00:45:34;;;;;;;16.07;4.95;;;;;;;;;;1872568;75;21031;-55
2022/04/02 00:48:03;;;;;;;14.47;4.95;;;;;;;;;;1872541;77;21035;-55
2022/04/02 00:50:32;;;;;;;14.40;4.05;;;;;;;;;;1872585;76;21031;-55
2022/04/02 00:53:01;;;;;;;15.23;4.30;;;;;;;;;;1872547;75;21039;-55
2022/04/02 00:55:30;;;;;;;16.35;4.60;;;;;;;;;;1872648;77;21031;-55
2022/04/02 00:57:59;;;;;;;12.78;4.60;;;;;;;;;;1872633;77;21027;-55
2022/04/02 01:00:28;;;;;;;19.90;5.92;;;;;;;;;;1872738;77;21098;-55
2022/04/02 01:02:57;;;;;;;13.00;4.22;;;;;;;;;;1872643;76;21586;-55
2022/04/02 01:05:26;;;;;;;13.88;4.00;;;;;;;;;;1860520;77;21043;-55
2022/04/02 01:07:55;;;;;;;17.73;4.62;;;;;;;;;;1872594;75;21015;-55
2022/04/02 01:10:25;;;;;;;15.03;4.08;;;;;;;;;;1872527;75;21019;-55
2022/04/02 01:12:54;;;;;;;14.60;4.47;;;;;;;;;;1872616;77;21097;-55
2022/04/02 01:15:22;;;;;;;19.50;4.97;;;;;;;;;;1872618;77;21027;-55
2022/04/02 01:17:53;;;;;;;11.57;4.05;;;;;;;;;;1872581;77;21112;-55
2022/04/02 01:20:24;;;;;;;11.03;4.10;;;;;;;;;;1871960;76;21071;-55
2022/04/02 01:22:54;;;;;;;12.33;4.28;;;;;;;;;;1872382;76;21063;-55
2022/04/02 01:25:23;;;;;;;16.82;3.77;;;;;;;;;;1872487;75;21039;-55
2022/04/02 01:27:54;;;;;;;12.80;3.83;;;;;;;;;;1872692;77;21089;-55
2022/04/02 01:30:23;;;;;;;11.25;3.83;;;;;;;;;;1872306;75;21118;-55
2022/04/02 01:32:53;;;;;;;18.30;4.33;;;;;;;;;;1872499;76;21109;-55
2022/04/02 01:35:22;;;;;;;18.07;4.53;;;;;;;;;;1872649;77;21117;-55
2022/04/02 01:37:53;;;;;;;13.25;5.53;;;;;;;;;;1854404;77;21050;-55
2022/04/02 01:40:23;;;;;;;13.20;3.87;;;;;;;;;;1872451;75;21067;-55
2022/04/02 01:42:52;;;;;;;23.65;5.20;;;;;;;;;;1872654;75;21019;-55
2022/04/02 01:45:21;;;;;;;20.40;3.70;;;;;;;;;;1872467;77;21039;-54
2022/04/02 01:47:57;;;;;;;13.75;4.20;;;;;;;;;;1872361;76;21075;-55
2022/04/02 01:50:27;;;;;;;15.48;4.47;;;;;;;;;;1871868;76;21101;-55
2022/04/02 01:52:56;;;;;;;11.83;3.85;;;;;;;;;;1872708;77;21047;-55
2022/04/02 01:55:25;;;;;;;10.48;4.12;;;;;;;;;;1872531;75;21156;-55
2022/04/02 01:57:55;;;;;;;11.57;3.83;;;;;;;;;;1872404;76;21072;-55
2022/04/02 02:00:32;;;;;;;13.20;3.90;;;;;;;;;;1872400;76;21137;-55
2022/04/02 02:03:01;;;;;;;15.13;4.70;;;;;;;;;;1872614;75;21043;-55
2022/04/02 02:05:30;;;;;;;11.95;4.20;;;;;;;;;;1872749;77;21148;-55
2022/04/02 02:07:59;;;;;;;11.60;3.47;;;;;;;;;;1872739;75;21047;-55
2022/04/02 02:10:47;;;;;;;16.85;4.03;;;;;;;;;;1872598;77;21027;-55
2022/04/02 02:13:32;;;;;;;18.92;4.70;;;;;;;;;;1871006;76;21019;-55
2022/04/02 02:16:03;;;;;;;12.45;3.62;;;;;;;;;;1872312;75;21092;-56
2022/04/02 02:18:33;;;;;;;17.82;4.30;;;;;;;;;;1872363;75;21071;-56
2022/04/02 02:21:02;;;;;;;14.28;3.75;;;;;;;;;;1872701;77;21097;-56
2022/04/02 02:23:31;;;;;;;11.90;4.15;;;;;;;;;;1872581;77;21067;-56
2022/04/02 02:26:00;;;;;;;10.80;3.45;;;;;;;;;;1872603;77;21039;-56
2022/04/02 02:28:29;;;;;;;13.48;3.37;;;;;;;;;;1872653;75;21027;-56
2022/04/02 02:30:59;;;;;;;11.97;3.72;;;;;;;;;;1860570;77;21086;-56
2022/04/02 02:36:17;;;;;;;22.67;4.92;;;;;;;;;;1872998;77;21051;-56
2022/04/02 02:38:47;;;;;;;14.25;4.00;;;;;;;;;;1872349;75;21508;-56
2022/04/02 02:41:20;;;;;;;19.70;5.05;;;;;;;;;;1872485;76;21044;-56
2022/04/02 02:43:50;;;;;;;14.00;4.22;;;;;;;;;;1872493;76;21050;-56
2022/04/02 02:46:20;;;;;;;13.05;4.22;;;;;;;;;;1870741;76;21046;-56
2022/04/02 02:48:51;;;;;;;12.05;5.20;;;;;;;;;;1872196;76;21536;-56
2022/04/02 02:51:21;;;;;;;22.37;4.90;;;;;;;;;;1872844;75;21109;-56
2022/04/02 02:53:50;;;;;;;14.45;5.50;;;;;;;;;;1872727;77;21043;-56
2022/04/02 02:56:19;;;;;;;13.30;4.33;;;;;;;;;;1872616;75;21023;-56
2022/04/02 02:58:49;;;;;;;14.20;4.05;;;;;;;;;;1872471;75;21050;-56
2022/04/02 03:01:18;;;;;;;14.45;4.17;;;;;;;;;;1872779;77;21097;-56
2022/04/02 03:03:48;;;;;;;18.20;4.40;;;;;;;;;;1872518;75;21097;-56
2022/04/02 03:06:18;;;;;;;17.73;4.10;;;;;;;;;;1872607;77;21082;-56
2022/04/02 03:08:47;;;;;;;12.28;4.58;;;;;;;;;;1872471;75;21055;-56
2022/04/02 03:11:17;;;;;;;11.68;3.30;;;;;;;;;;1872506;77;21101;-56
2022/04/02 03:13:46;;;;;;;17.70;4.28;;;;;;;;;;1872663;77;21039;-56
2022/04/02 03:16:15;;;;;;;16.62;4.25;;;;;;;;;;1872639;75;21023;-56
2022/04/02 03:19:04;;;;;;;14.30;4.30;;;;;;;;;;1871216;76;21050;-56
2022/04/02 03:21:32;;;;;;;15.15;4.87;;;;;;;;;;1872682;76;21039;-56
2022/04/02 03:24:02;;;;;;;8.93;4.17;;;;;;;;;;1872522;77;21015;-56
2022/04/02 03:26:34;;;;;;;19.62;4.05;;;;;;;;;;1872491;75;21027;-56
2022/04/02 03:29:04;;;;;;;15.05;3.80;;;;;;;;;;1872326;76;21468;-55
2022/04/02 03:31:32;;;;;;;15.08;4.20;;;;;;;;;;1872478;77;21039;-56
2022/04/02 03:34:02;;;;;;;14.43;4.35;;;;;;;;;;1892023;75;21066;-56
2022/04/02 03:36:30;;;;;;;12.43;4.08;;;;;;;;;;1894066;76;21003;-56
2022/04/02 03:39:00;;;;;;;15.13;5.05;;;;;;;;;;1894000;76;21034;-56
2022/04/02 03:41:29;;;;;;;19.65;4.60;;;;;;;;;;1893941;76;21108;-56
2022/04/02 03:43:58;;;;;;;17.12;3.80;;;;;;;;;;1894076;75;21132;-56
2022/04/02 03:49:16;;;;;;;17.32;4.60;;;;;;;;;;1893913;76;21104;-56
2022/04/02 03:51:45;;;;;;;16.07;3.75;;;;;;;;;;1894038;75;21043;-56
2022/04/02 03:54:15;;;;;;;14.10;4.42;;;;;;;;;;1893484;75;21071;-56
2022/04/02 03:56:45;;;;;;;22.95;5.72;;;;;;;;;;1893604;75;21067;-56
2022/04/02 03:59:16;;;;;;;16.65;5.60;;;;;;;;;;1893887;76;21051;-56
2022/04/02 04:01:47;;;;;;;21.23;3.77;;;;;;;;;;1894010;75;21074;-56
2022/04/02 04:04:16;;;;;;;17.12;4.70;;;;;;;;;;1893942;76;21096;-56
2022/04/02 04:06:45;;;;;;;19.67;4.53;;;;;;;;;;1894084;76;21030;-56
2022/04/02 04:09:13;;;;;;;14.85;5.17;;;;;;;;;;1893926;75;21002;-56
2022/04/02 04:11:44;;;;;;;21.55;5.72;;;;;;;;;;1893775;74;21066;-56
2022/04/02 04:14:13;;;;;;;14.15;3.92;;;;;;;;;;1894065;76;21101;-56
2022/04/02 04:16:43;;;;;;;12.73;4.17;;;;;;;;;;1894017;75;21108;-56
2022/04/02 04:19:12;;;;;;;15.88;4.78;;;;;;;;;;1894019;76;21112;-56
2022/04/02 04:21:43;;;;;;;18.07;5.67;;;;;;;;;;1894013;76;21050;-56
2022/04/02 04:24:12;;;;;;;18.95;5.15;;;;;;;;;;1893940;76;21022;-56
2022/04/02 04:26:42;;;;;;;15.15;4.78;;;;;;;;;;1893888;75;21436;-55
2022/04/02 04:29:11;;;;;;;16.45;4.75;;;;;;;;;;1893887;76;21089;-56
2022/04/02 04:31:40;;;;;;;14.30;4.37;;;;;;;;;;1893996;75;21062;-56
2022/04/02 04:34:09;;;;;;;17.57;5.15;;;;;;;;;;1877136;75;21318;-56
2022/04/02 04:36:38;;;;;;;14.58;5.17;;;;;;;;;;1872544;77;21047;-56
2022/04/02 04:39:07;;;;;;;18.62;3.90;;;;;;;;;;1872357;75;21105;-56
2022/04/02 04:41:38;;;;;;;20.02;4.80;;;;;;;;;;1872381;75;21071;-56
2022/04/02 04:44:07;;;;;;;14.60;4.33;;;;;;;;;;1872399;77;21047;-56
2022/04/02 04:46:39;;;;;;;18.07;5.70;;;;;;;;;;1872220;76;21689;-56
2022/04/02 04:49:09;;;;;;;9.55;3.83;;;;;;;;;;1872478;77;21144;-56
2022/04/02 04:51:40;;;;;;;13.78;4.47;;;;;;;;;;1872516;77;21051;-56
2022/04/02 04:54:09;;;;;;;22.65;5.00;;;;;;;;;;1872349;75;21051;-56
2022/04/02 04:56:39;;;;;;;15.90;4.83;;;;;;;;;;1872125;76;21158;-56
2022/04/02 04:59:10;;;;;;;14.65;6.28;;;;;;;;;;1872502;77;21043;-56
2022/04/02 05:01:39;;;;;;;18.32;6.58;;;;;;;;;;1872331;77;21161;-56
2022/04/02 05:04:07;;;;;;;17.67;5.42;;;;;;;;;;1872318;76;21043;-56
2022/04/02 05:06:38;;;;;;;19.82;6.62;;;;;;;;;;1871971;76;21126;-56
2022/04/02 05:09:08;;;;;;;28.20;7.80;;;;;;;;;;1872336;77;21051;-56
2022/04/02 05:11:39;;;;;;;10.00;4.15;;;;;;;;;;1872205;76;21126;-56
2022/04/02 05:14:10;;;;;;;51.33;6.85;;;;;;;;;;1872534;75;21026;-56
2022/04/02 05:16:39;;;;;;;23.75;5.42;;;;;;;;;;1872535;77;21047;-56
2022/04/02 05:19:10;;;;;;;19.48;5.20;;;;;;;;;;1872187;76;21095;-55
2022/04/02 05:21:40;;;;;;;18.05;5.72;;;;;;;;;;1872432;77;21082;-56
2022/04/02 05:24:10;;;;;;;16.42;4.22;;;;;;;;;;1872294;76;21071;-56
2022/04/02 05:26:41;;;;;;;17.60;4.72;;;;;;;;;;1872161;75;21083;-56
2022/04/02 05:29:11;;;;;;;17.98;4.72;;;;;;;;;;1872116;76;21078;-56
2022/04/02 05:31:44;;;;;;;15.85;4.95;;;;;;;;;;1872501;75;21046;-56
2022/04/02 05:34:13;;;;;;;16.77;4.47;;;;;;;;;;1885446;75;21116;-56
2022/04/02 05:36:43;;;;;;;13.22;3.70;;;;;;;;;;1894067;76;21050;-56
2022/04/02 05:39:11;;;;;;;18.35;4.58;;;;;;;;;;1893951;75;21026;-56
2022/04/02 05:41:42;;;;;;;20.10;4.20;;;;;;;;;;1893967;76;21043;-56
2022/04/02 05:44:10;;;;;;;12.80;4.95;;;;;;;;;;1894052;76;21014;-56
2022/04/02 05:46:39;;;;;;;21.00;5.17;;;;;;;;;;1893916;76;21023;-56
2022/04/02 05:49:08;;;;;;;19.60;5.33;;;;;;;;;;1893894;75;21089;-56
2022/04/02 05:51:37;;;;;;;20.50;4.00;;;;;;;;;;1894018;76;21042;-56
2022/04/02 05:54:06;;;;;;;15.00;4.58;;;;;;;;;;1893998;75;21096;-56
2022/04/02 05:56:34;;;;;;;22.82;5.58;;;;;;;;;;1893989;75;21386;-56
2022/04/02 05:59:09;;;;;;;16.77;4.10;;;;;;;;;;1893982;74;21018;-56
2022/04/02 06:01:35;;;;;;;17.57;3.85;;;;;;;;;;1893048;76;21550;-56
2022/04/02 06:04:04;;;;;;;22.07;5.15;;;;;;;;;;1894053;76;21034;-56
2022/04/02 06:06:33;;;;;;;19.15;4.00;;;;;;;;;;1893870;76;21097;-56
2022/04/02 06:09:02;;;;;;;25.48;5.05;;;;;;;;;;1893911;75;21038;-56
2022/04/02 06:11:31;;;;;;;29.42;5.65;;;;;;;;;;1894025;75;21088;-56
2022/04/02 06:14:00;;;;;;;17.62;5.05;;;;;;;;;;1894061;76;21093;-56
2022/04/02 06:16:28;;;;;;;15.98;4.30;;;;;;;;;;1893987;76;21093;-56
2022/04/02 06:18:57;;;;;;;17.90;4.50;;;;;;;;;;1893968;75;21092;-56
2022/04/02 06:21:26;;;;;;;13.32;4.65;;;;;;;;;;1894087;76;21006;-56
2022/04/02 06:23:55;;;;;;;21.25;4.78;;;;;;;;;;1894034;76;21050;-56
2022/04/02 06:26:23;;;;;;;14.65;4.28;;;;;;;;;;1893942;76;21018;-56
2022/04/02 06:28:52;;;;;;;13.60;3.67;;;;;;;;;;1893933;75;21112;-56
2022/04/02 06:31:21;;;;;;;12.28;4.10;;;;;;;;;;1894030;76;21097;-56
2022/04/02 06:33:50;;;;;;;11.50;4.62;;;;;;;;;;1888178;75;21064;-56
2022/04/02 06:36:19;;;;;;;20.32;4.60;;;;;;;;;;1883522;76;21147;-56
2022/04/02 06:38:49;;;;;;;18.30;4.78;;;;;;;;;;1893998;75;21093;-56
2022/04/02 06:41:17;;;;;;;17.82;4.70;;;;;;;;;;1893943;76;21046;-56
2022/04/02 06:43:46;;;;;;;11.48;4.22;;;;;;;;;;1894050;76;21042;-56
2022/04/02 06:46:17;;;;;;;18.02;5.20;;;;;;;;;;1893341;75;21082;-56
2022/04/02 06:48:45;;;;;;;15.88;4.62;;;;;;;;;;1893927;75;21108;-56
2022/04/02 06:51:16;;;;;;;16.30;4.08;;;;;;;;;;1893988;74;21011;-56
2022/04/02 06:53:45;;;;;;;21.87;4.60;;;;;;;;;;1893952;76;21131;-56
2022/04/02 06:56:14;;;;;;;16.37;4.35;;;;;;;;;;1893987;76;21046;-56
2022/04/02 06:58:42;;;;;;;23.55;4.50;;;;;;;;;;1893891;75;21103;-56
2022/04/02 07:01:11;;;;;;;18.23;4.28;;;;;;;;;;1894002;75;21026;-56
2022/04/02 07:03:40;;;;;;;26.20;6.17;;;;;;;;;;1893952;76;21104;-57
2022/04/02 07:06:09;;;;;;;13.48;4.50;;;;;;;;;;1893934;76;21151;-56
2022/04/02 07:08:38;;;;;;;12.03;4.00;;;;;;;;;;1893889;76;21046;-56
2022/04/02 07:11:07;;;;;;;18.62;5.60;;;;;;;;;;1893999;76;21042;-56
2022/04/02 07:13:36;;;;;;;24.23;4.67;;;;;;;;;;1893908;76;21034;-56
2022/04/02 07:16:05;;;;;;;20.48;5.10;;;;;;;;;;1893983;76;21022;-56
2022/04/02 07:18:35;;;;;;;15.48;4.58;;;;;;;;;;1894052;76;21033;-56
2022/04/02 07:21:04;;;;;;;15.03;5.10;;;;;;;;;;1893974;76;21027;-56
2022/04/02 07:23:34;;;;;;;14.10;4.78;;;;;;;;;;1894024;76;21035;-56
2022/04/02 07:26:04;;;;;;;18.32;5.20;;;;;;;;;;1894005;76;21030;-56
2022/04/02 07:28:33;;;;;;;18.15;5.05;;;;;;;;;;1893961;76;21062;-56
2022/04/02 07:31:02;;;;;;;29.98;5.28;;;;;;;;;;1894054;76;21038;-56
2022/04/02 07:33:31;;;;;;;19.23;5.25;;;;;;;;;;1893914;75;21018;-56
2022/04/02 07:36:08;;;;;;;15.93;4.50;;;;;;;;;;1889662;76;21062;-56
2022/04/02 07:38:40;;;;;;;16.75;4.95;;;;;;;;;;1872449;75;21066;-56
2022/04/02 07:41:16;;;;;;;31.23;6.85;;;;;;;;;;1872502;77;21086;-56
2022/04/02 07:43:46;;;;;;;21.02;5.20;;;;;;;;;;1872112;76;21131;-56
2022/04/02 07:46:16;;;;;;;19.37;6.30;;;;;;;;;;1872283;76;21081;-56
2022/04/02 07:48:46;;;;;;;24.07;7.40;;;;;;;;;;1872327;77;21043;-57
2022/04/02 07:51:16;;;;;;;18.87;5.35;;;;;;;;;;1872449;77;21477;-56
2022/04/02 07:53:45;;;;;;;16.32;5.17;;;;;;;;;;1872411;77;21019;-56
2022/04/02 07:56:15;;;;;;;16.82;4.72;;;;;;;;;;1872501;77;21539;-56
2022/04/02 07:58:45;;;;;;;21.23;4.95;;;;;;;;;;1872387;77;21442;-56
2022/04/02 08:01:15;;;;;;;18.02;4.53;;;;;;;;;;1872565;77;21515;-56
2022/04/02 08:03:45;;;;;;;18.87;4.72;;;;;;;;;;1872407;77;20996;-56
2022/04/02 08:06:15;;;;;;;13.03;4.50;;;;;;;;;;1872280;75;21133;-57
2022/04/02 08:08:45;;;;;;;14.45;4.87;;;;;;;;;;1872333;77;21035;-56
2022/04/02 08:11:13;;;;;;;19.45;6.12;;;;;;;;;;1872620;77;21039;-56
2022/04/02 08:13:44;;;;;;;18.05;4.37;;;;;;;;;;1872084;76;21068;-56
2022/04/02 08:16:13;;;;;;;22.58;6.80;;;;;;;;;;1872444;77;21039;-56
2022/04/02 08:18:42;;;;;;;18.55;4.20;;;;;;;;;;1872356;77;21004;-56
2022/04/02 08:21:12;;;;;;;18.52;4.80;;;;;;;;;;1872012;76;21067;-56
2022/04/02 08:23:41;;;;;;;23.15;5.20;;;;;;;;;;1872492;75;21011;-56
2022/04/02 08:26:26;;;;;;;18.82;5.20;;;;;;;;;;1872348;77;21031;-56
2022/04/02 08:29:05;;;;;;;15.13;4.87;;;;;;;;;;1871991;75;21031;-56
2022/04/02 08:31:56;;;;;;;16.05;4.53;;;;;;;;;;1872109;76;21129;-56
2022/04/02 08:34:44;;;;;;;13.75;5.47;;;;;;;;;;1872392;77;21038;-56
2022/04/02 08:37:17;;;;;;;21.60;4.90;;;;;;;;;;1882751;76;21148;-56
2022/04/02 08:39:54;;;;;;;18.52;7.50;;;;;;;;;;1893564;75;21046;-56
2022/04/02 08:42:24;;;;;;;28.73;5.75;;;;;;;;;;1893678;75;21003;-56
2022/04/02 08:45:06;;;;;;;19.90;5.03;;;;;;;;;;1893089;75;20994;-56
2022/04/02 08:47:35;;;;;;;12.70;4.00;;;;;;;;;;1894154;75;21109;-55
2022/04/02 08:50:14;;;;;;;16.05;4.67;;;;;;;;;;1893999;76;21022;-56
2022/04/02 08:52:44;;;;;;;24.85;6.37;;;;;;;;;;1894044;76;21027;-55
2022/04/02 08:55:14;;;;;;;20.00;5.87;;;;;;;;;;1893578;75;21111;-55
2022/04/02 08:57:47;;;;;;;16.75;4.95;;;;;;;;;;1894018;76;21113;-56
2022/04/02 09:00:16;;;;;;;19.15;4.65;;;;;;;;;;1894114;76;21046;-56
2022/04/02 09:02:46;;;;;;;18.50;4.70;;;;;;;;;;1894050;76;21472;-55
2022/04/02 09:05:19;;;;;;;16.07;5.78;;;;;;;;;;1894093;75;21080;-56
2022/04/02 09:08:01;;;;;;;17.75;6.53;;;;;;;;;;1894056;75;21080;-55
2022/04/02 09:10:48;;;;;;;18.77;5.55;;;;;;;;;;1894091;76;21069;-55
2022/04/02 09:13:21;;;;;;;17.27;5.62;;;;;;;;;;1894022;76;21096;-55
2022/04/02 09:16:00;;;;;;;16.97;4.87;;;;;;;;;;1893583;75;21131;-56
2022/04/02 09:18:30;;;;;;;23.32;5.83;;;;;;;;;;1893599;75;21026;-56
2022/04/02 09:21:00;;;;;;;13.50;5.10;;;;;;;;;;1894146;75;21018;-56
2022/04/02 09:23:45;;;;;;;22.82;6.72;;;;;;;;;;1893985;75;21018;-55
2022/04/02 09:26:28;;;;;;;19.25;5.85;;;;;;;;;;1894104;76;21018;-55
2022/04/02 09:29:14;;;;;;;21.30;5.40;;;;;;;;;;1877779;75;21050;-55
2022/04/02 09:32:01;;;;;;;17.42;5.28;;;;;;;;;;1893997;75;21034;-56
2022/04/02 09:34:48;;;;;;;17.65;5.33;;;;;;;;;;1894108;76;21109;-55
2022/04/02 09:37:34;;;;;;;22.15;5.70;;;;;;;;;;1886399;76;21066;-55
2022/04/02 09:40:04;;;;;;;26.00;6.15;;;;;;;;;;1872461;75;21019;-55
2022/04/02 09:42:37;;;;;;;11.83;4.10;;;;;;;;;;1872430;77;21097;-55
2022/04/02 09:45:09;;;;;;;17.02;4.70;;;;;;;;;;1872559;77;21055;-55
2022/04/02 09:47:39;;;;;;;21.07;4.85;;;;;;;;;;1872529;75;21077;-55
2022/04/02 09:50:11;;;;;;;20.48;5.37;;;;;;;;;;1871966;76;21025;-55
2022/04/02 09:52:48;;;;;;;12.13;5.35;;;;;;;;;;1872414;77;21086;-55
2022/04/02 09:55:15;;;;;;;18.15;5.03;;;;;;;;;;1871264;77;21027;-55
2022/04/02 09:57:48;;;;;;;19.50;5.00;;;;;;;;;;1872434;77;21031;-55
2022/04/02 10:00:16;;;;;;;24.02;5.75;;;;;;;;;;1872543;76;21023;-55
2022/04/02 10:02:47;;;;;;;16.32;5.47;;;;;;;;;;1872346;77;21039;-55
2022/04/02 10:05:17;;;;;;;23.50;4.92;;;;;;;;;;1871866;76;21047;-55
2022/04/02 10:07:47;;;;;;;19.07;4.53;;;;;;;;;;1872403;77;21027;-56
2022/04/02 10:10:15;;;;;;;23.18;6.45;;;;;;;;;;1872219;76;21023;-55
2022/04/02 10:12:47;;;;;;;19.05;6.05;;;;;;;;;;1872572;77;21085;-56
2022/04/02 10:15:15;;;;;;;18.90;4.80;;;;;;;;;;1872593;76;21094;-56
2022/04/02 10:17:46;;;;;;;17.73;4.90;;;;;;;;;;1872584;77;21090;-56
2022/04/02 10:20:14;;;;;;;23.85;5.85;;;;;;;;;;1872536;77;21031;-55
2022/04/02 10:22:44;;;;;;;25.43;6.12;;;;;;;;;;1872632;77;21030;-55
2022/04/02 10:25:14;;;;;;;17.65;5.97;;;;;;;;;;1872613;77;21035;-55
2022/04/02 10:27:43;;;;;;;26.80;7.75;;;;;;;;;;1872617;77;21007;-55
2022/04/02 10:30:16;;;;;;;23.60;5.70;;;;;;;;;;1872411;77;21105;-55
2022/04/02 10:33:26;;;;;;;18.57;5.62;;;;;;;;;;1872566;77;21066;-55
2022/04/02 10:35:29;;;;;;;20.30;5.65;;;;;;;;;;1870514;77;21047;-55
2022/04/02 10:38:05;;;;;;;17.98;5.90;;;;;;;;;;1872402;75;21063;-55
2022/04/02 10:40:35;;;;;;;23.32;6.12;;;;;;;;;;1872605;77;21007;-55
2022/04/02 10:43:06;;;;;;;23.35;6.10;;;;;;;;;;1872274;76;21085;-55
2022/04/02 10:45:41;;;;;;;21.62;5.83;;;;;;;;;;1872549;77;21136;-55
2022/04/02 10:48:12;;;;;;;26.97;6.10;;;;;;;;;;1872342;75;21066;-56
2022/04/02 10:50:42;;;;;;;21.62;5.87;;;;;;;;;;1872400;77;21067;-55
2022/04/02 10:53:11;;;;;;;19.02;5.83;;;;;;;;;;1872511;77;21073;-55
2022/04/02 10:55:41;;;;;;;26.85;6.45;;;;;;;;;;1872504;77;21023;-55
2022/04/02 10:58:10;;;;;;;28.55;6.95;;;;;;;;;;1872595;77;21015;-56
2022/04/02 11:00:40;;;;;;;37.17;10.72;;;;;;;;;;1872434;75;21019;-56
2022/04/02 11:03:10;;;;;;;34.08;12.23;;;;;;;;;;1872507;76;21035;-55
2022/04/02 11:05:39;;;;;;;22.30;6.87;;;;;;;;;;1872464;75;20999;-56
2022/04/02 11:08:12;;;;;;;37.35;6.60;;;;;;;;;;1872319;76;21039;-56
2022/04/02 11:10:42;;;;;;;22.20;6.42;;;;;;;;;;1872333;77;21082;-55
2022/04/02 11:13:11;;;;;;;26.40;5.78;;;;;;;;;;1871993;76;21159;-56
2022/04/02 11:15:40;;;;;;;20.70;5.62;;;;;;;;;;1872473;77;21093;-56
2022/04/02 11:18:18;;;;;;;26.42;6.45;;;;;;;;;;1872478;75;21583;-56
2022/04/02 11:20:48;;;;;;;18.02;5.35;;;;;;;;;;1872535;77;21034;-55
2022/04/02 11:23:20;;;;;;;21.20;5.67;;;;;;;;;;1872430;77;21093;-55
2022/04/02 11:25:55;;;;;;;20.02;5.72;;;;;;;;;;1872644;77;21028;-56
2022/04/02 11:28:24;;;;;;;26.90;6.62;;;;;;;;;;1872461;77;21031;-56
2022/04/02 11:30:54;;;;;;;24.98;6.35;;;;;;;;;;1872421;77;21039;-55
2022/04/02 11:33:27;;;;;;;23.57;6.72;;;;;;;;;;1872478;77;21011;-56
2022/04/02 11:35:57;;;;;;;29.35;5.95;;;;;;;;;;1871563;76;21544;-55
2022/04/02 11:38:34;;;;;;;28.83;6.00;;;;;;;;;;1872464;75;21149;-56
2022/04/02 11:41:10;;;;;;;28.52;6.45;;;;;;;;;;1872233;76;21047;-55
2022/04/02 11:43:40;;;;;;;25.40;7.33;;;;;;;;;;1872424;76;21027;-55
2022/04/02 11:46:09;;;;;;;28.98;7.28;;;;;;;;;;1872537;77;21104;-56
2022/04/02 11:48:39;;;;;;;29.55;6.60;;;;;;;;;;1872425;75;21007;-56
2022/04/02 11:51:12;;;;;;;22.82;5.47;;;;;;;;;;1871729;76;21027;-56
2022/04/02 11:53:41;;;;;;;37.35;5.90;;;;;;;;;;1872506;77;21023;-56
2022/04/02 11:56:24;;;;;;;27.25;6.33;;;;;;;;;;1872476;77;21078;-55
2022/04/02 11:58:54;;;;;;;19.55;6.00;;;;;;;;;;1872381;77;21563;-55
2022/04/02 12:01:23;;;;;;;33.90;17.05;;;;;;;;;;1872440;77;21007;-56
2022/04/02 12:03:53;;;;;;;18.52;4.70;;;;;;;;;;1872444;77;21117;-55
2022/04/02 12:06:22;;;;;;;20.02;6.03;;;;;;;;;;1871256;77;21176;-55
2022/04/02 12:08:53;;;;;;;16.42;4.90;;;;;;;;;;1872410;76;21085;-55
2022/04/02 12:11:25;;;;;;;23.47;5.72;;;;;;;;;;1872333;77;21027;-56
2022/04/02 12:13:56;;;;;;;27.93;5.97;;;;;;;;;;1872433;77;21042;-56
2022/04/02 12:16:26;;;;;;;24.35;5.55;;;;;;;;;;1872361;76;21043;-55
2022/04/02 12:18:57;;;;;;;17.85;5.10;;;;;;;;;;1872521;77;21089;-55
2022/04/02 12:21:36;;;;;;;27.90;8.25;;;;;;;;;;1872462;77;21097;-56
2022/04/02 12:24:11;;;;;;;25.08;6.03;;;;;;;;;;1872379;76;21168;-56
2022/04/02 12:26:40;;;;;;;38.38;7.12;;;;;;;;;;1872482;75;21101;-55
2022/04/02 12:29:10;;;;;;;27.05;6.10;;;;;;;;;;1872350;77;21030;-55
2022/04/02 12:31:41;;;;;;;23.38;4.78;;;;;;;;;;1871833;76;21023;-55
2022/04/02 12:34:10;;;;;;;21.70;5.10;;;;;;;;;;1871849;76;21433;-56
2022/04/02 12:36:40;;;;;;;24.75;5.22;;;;;;;;;;1872537;77;21027;-56
2022/04/02 12:39:09;;;;;;;24.70;6.40;;;;;;;;;;1883916;75;21058;-56
2022/04/02 12:41:49;;;;;;;24.72;6.67;;;;;;;;;;1894125;76;21108;-56
2022/04/02 12:44:21;;;;;;;23.95;5.85;;;;;;;;;;1894101;76;21003;-56
2022/04/02 12:46:51;;;;;;;21.30;4.92;;;;;;;;;;1893944;75;21065;-56
2022/04/02 12:49:33;;;;;;;22.62;6.03;;;;;;;;;;1893916;75;21046;-56
2022/04/02 12:52:12;;;;;;;18.52;5.62;;;;;;;;;;1893936;75;21023;-56
2022/04/02 12:54:50;;;;;;;19.55;5.62;;;;;;;;;;1893979;76;21053;-56
2022/04/02 12:57:18;;;;;;;26.68;5.30;;;;;;;;;;1893962;76;21488;-56
2022/04/02 12:59:54;;;;;;;19.30;5.00;;;;;;;;;;1894005;76;21089;-56
2022/04/02 13:02:23;;;;;;;22.27;6.20;;;;;;;;;;1894029;76;21022;-56
2022/04/02 13:04:53;;;;;;;25.95;6.80;;;;;;;;;;1893978;76;21096;-56
2022/04/02 13:07:22;;;;;;;34.53;7.72;;;;;;;;;;1893533;75;21050;-56
2022/04/02 13:09:52;;;;;;;25.97;11.18;;;;;;;;;;1893864;76;21139;-56
2022/04/02 13:12:24;;;;;;;25.97;8.40;;;;;;;;;;1893806;76;21186;-56
2022/04/02 13:14:57;;;;;;;24.27;7.35;;;;;;;;;;1893907;76;21104;-56
2022/04/02 13:17:28;;;;;;;23.05;7.15;;;;;;;;;;1893815;76;21030;-56
2022/04/02 13:22:48;;;;;;;25.48;6.40;;;;;;;;;;1893827;75;21104;-56
2022/04/02 13:25:17;;;;;;;34.90;7.80;;;;;;;;;;1893956;76;20999;-56
2022/04/02 13:28:04;;;;;;;29.90;5.58;;;;;;;;;;1893753;76;21159;-56
2022/04/02 13:30:39;;;;;;;25.70;5.35;;;;;;;;;;1893998;75;21011;-56
2022/04/02 13:33:12;;;;;;;20.35;6.20;;;;;;;;;;1894039;76;21113;-56
2022/04/02 13:35:45;;;;;;;35.40;7.00;;;;;;;;;;1891930;75;21070;-56
2022/04/02 13:38:15;;;;;;;34.27;7.25;;;;;;;;;;1893968;74;21472;-56
2022/04/02 13:40:45;;;;;;;33.28;7.37;;;;;;;;;;1868255;76;21070;-56
2022/04/02 13:43:15;;;;;;;21.95;5.33;;;;;;;;;;1872468;77;21542;-56
2022/04/02 13:45:44;;;;;;;24.85;5.55;;;;;;;;;;1871961;75;21023;-56
2022/04/02 13:48:14;;;;;;;31.52;6.78;;;;;;;;;;1872440;75;21117;-56
2022/04/02 13:50:43;;;;;;;29.67;6.30;;;;;;;;;;1872466;76;21441;-56
2022/04/02 13:53:13;;;;;;;37.13;6.75;;;;;;;;;;1872444;76;21180;-56
2022/04/02 13:55:43;;;;;;;37.23;6.62;;;;;;;;;;1872448;77;21027;-56
2022/04/02 13:58:13;;;;;;;36.20;6.80;;;;;;;;;;1872614;77;21121;-56
2022/04/02 14:00:43;;;;;;;36.70;7.53;;;;;;;;;;1872159;77;21456;-56
2022/04/02 14:03:12;;;;;;;32.60;6.05;;;;;;;;;;1872579;77;21481;-56
2022/04/02 14:05:43;;;;;;;25.55;6.97;;;;;;;;;;1872626;77;21070;-56
2022/04/02 14:08:14;;;;;;;33.00;7.40;;;;;;;;;;1872529;77;21073;-56
2022/04/02 14:10:47;;;;;;;34.92;7.28;;;;;;;;;;1872404;77;21493;-56
2022/04/02 14:13:20;;;;;;;35.43;7.35;;;;;;;;;;1872606;77;21022;-56
2022/04/02 14:16:00;;;;;;;35.30;6.85;;;;;;;;;;1872388;77;21121;-56
2022/04/02 14:18:29;;;;;;;28.70;5.50;;;;;;;;;;1872396;77;21481;-56
2022/04/02 14:20:59;;;;;;;35.43;7.00;;;;;;;;;;1872526;77;21165;-56
2022/04/02 14:23:32;;;;;;;35.28;7.85;;;;;;;;;;1872288;76;21546;-56
2022/04/02 14:26:04;;;;;;;29.23;5.58;;;;;;;;;;1872559;75;21136;-56
2022/04/02 14:28:34;;;;;;;34.25;7.58;;;;;;;;;;1872406;75;21023;-56
2022/04/02 14:31:04;;;;;;;34.53;6.22;;;;;;;;;;1872180;76;21030;-56
2022/04/02 14:33:34;;;;;;;41.45;6.90;;;;;;;;;;1872394;77;21027;-56
2022/04/02 14:36:13;;;;;;;36.77;6.47;;;;;;;;;;1872519;77;21100;-56
2022/04/02 14:38:43;;;;;;;41.00;8.15;;;;;;;;;;1872519;75;21003;-56
2022/04/02 14:41:26;;;;;;;35.60;6.70;;;;;;;;;;1841741;78;21066;-56
2022/04/02 14:44:12;;;;;;;44.85;7.33;;;;;;;;;;1843820;78;21026;-56
2022/04/02 14:46:46;;;;;;;30.60;6.75;;;;;;;;;;1843687;78;21062;-56
2022/04/02 14:49:25;;;;;;;50.23;7.80;;;;;;;;;;1842461;76;21034;-56
2022/04/02 14:52:11;;;;;;;40.05;7.28;;;;;;;;;;1843663;77;21058;-56
2022/04/02 14:54:41;;;;;;;31.12;5.30;;;;;;;;;;1843747;78;21375;-56
2022/04/02 14:57:30;;;;;;;38.92;7.67;;;;;;;;;;1841131;77;21471;-56
2022/04/02 15:00:17;;;;;;;39.08;6.65;;;;;;;;;;1843841;78;21070;-56
2022/04/02 15:02:47;;;;;;;37.23;6.78;;;;;;;;;;1843650;77;21050;-56
2022/04/02 15:05:23;;;;;;;38.10;8.18;;;;;;;;;;1839297;78;21054;-56